Time;durP1;ratioP1;P1;durP2;ratioP2;P2;SDS_P1;SDS_P2;PMS_P1;PMS_P2;Temp;Humidity;BMP_temperature;BMP_pressure;BME280_temperature;BME280_humidity;BME280_pressure;Samples;Min_cycle;Max_cycle;Signal;HPM_P1;HPM_P2
2022/02/02 00:01:47;;;;;;;;;;;;;;;18.22;36.05;100093.91;5015625;28;798;-55
2022/02/02 00:04:18;;;;;;;;;;;;;;;18.16;35.78;100095.09;5015722;28;1910;-56
2022/02/02 00:06:56;;;;;;;;;;;;;;;18.14;36.32;100098.16;4997174;28;782;-56
2022/02/02 00:09:21;;;;;;;;;;;;;;;18.22;36.04;100088.41;5008906;28;723;-56
2022/02/02 00:16:51;;;;;;;;;;;;;;;18.13;36.23;100080.00;4997046;28;877;-56
2022/02/02 00:19:37;;;;;;;;;;;;;;;18.17;36.09;100063.72;5001779;28;863;-55
2022/02/02 00:22:12;;;;;;;;;;;;;;;18.23;35.90;100068.00;4996676;28;862;-56
2022/02/02 00:25:24;;;;;;;;;;;;;;;18.12;36.09;100068.19;4996520;28;1935;-55
2022/02/02 00:27:26;;;;;;;;;;;;;;;18.12;36.29;100065.44;5004221;28;1283;-56
2022/02/02 00:29:57;;;;;;;;;;;;;;;18.17;35.91;100060.97;5002701;28;899;-56
2022/02/02 00:35:08;;;;;;;;;;;;;;;18.26;35.86;100059.19;5000924;28;826;-55
2022/02/02 00:37:33;;;;;;;;;;;;;;;18.44;35.45;100063.78;5000565;28;919;-56
2022/02/02 00:39:59;;;;;;;;;;;;;;;18.47;35.29;100045.84;5000717;28;802;-56
2022/02/02 00:42:29;;;;;;;;;;;;;;;18.27;35.79;100058.03;5000853;28;801;-56
2022/02/02 00:44:56;;;;;;;;;;;;;;;18.40;35.58;100059.19;5001071;28;1898;-56
2022/02/02 00:47:24;;;;;;;;;;;;;;;18.32;35.80;100044.19;5000493;28;810;-55
2022/02/02 00:49:50;;;;;;;;;;;;;;;18.47;35.24;100056.88;5001049;28;723;-56
2022/02/02 00:52:16;;;;;;;;;;;;;;;18.47;35.46;100034.84;5000139;28;843;-56
2022/02/02 00:54:41;;;;;;;;;;;;;;;18.46;35.18;100028.50;5000511;28;1035;-56
2022/02/02 00:57:08;;;;;;;;;;;;;;;18.44;35.62;100028.00;5001513;28;889;-57
2022/02/02 00:59:33;;;;;;;;;;;;;;;18.39;35.41;100028.09;5012821;28;868;-55
2022/02/02 01:01:59;;;;;;;;;;;;;;;18.34;35.69;100019.94;5000157;28;822;-56
2022/02/02 01:04:25;;;;;;;;;;;;;;;18.28;35.76;100021.16;5000051;28;1906;-56
2022/02/02 01:07:04;;;;;;;;;;;;;;;18.39;35.47;100032.78;5000301;28;806;-56
2022/02/02 01:10:38;;;;;;;;;;;;;;;18.27;35.57;100016.75;5002882;28;920;-56
2022/02/02 01:12:51;;;;;;;;;;;;;;;18.22;35.89;100022.38;4992917;28;1574;-56
2022/02/02 01:28:18;;;;;;;;;;;;;;;18.20;35.84;99999.81;5013738;28;854;-56
2022/02/02 01:30:44;;;;;;;;;;;;;;;18.24;35.72;99998.09;5004803;28;905;-56
2022/02/02 01:33:09;;;;;;;;;;;;;;;18.23;36.08;100010.22;4999497;28;735;-56
2022/02/02 01:35:35;;;;;;;;;;;;;;;18.27;35.79;100003.81;5003159;28;1015;-56
2022/02/02 01:38:00;;;;;;;;;;;;;;;18.08;35.89;99984.63;4999752;28;842;-56
2022/02/02 01:40:33;;;;;;;;;;;;;;;18.12;35.96;99984.84;4998612;28;917;-56
2022/02/02 01:43:24;;;;;;;;;;;;;;;18.20;35.67;99986.06;5012569;28;814;-56
2022/02/02 01:45:58;;;;;;;;;;;;;;;18.12;35.94;99985.66;5002257;28;1984;-56
2022/02/02 01:48:43;;;;;;;;;;;;;;;18.18;35.73;99980.06;4999857;28;905;-56
2022/02/02 01:56:05;;;;;;;;;;;;;;;18.18;35.72;99985.56;5017845;28;775;-56
2022/02/02 02:01:02;;;;;;;;;;;;;;;18.13;35.75;99998.31;5004832;28;872;-55
2022/02/02 02:03:28;;;;;;;;;;;;;;;18.21;35.61;99988.50;4999049;28;743;-56
2022/02/02 02:05:53;;;;;;;;;;;;;;;18.28;35.35;99986.16;4999160;28;1984;-56
2022/02/02 02:08:19;;;;;;;;;;;;;;;18.31;35.30;99982.00;4999238;28;747;-55
2022/02/02 02:10:45;;;;;;;;;;;;;;;18.23;35.90;99979.94;4999082;28;863;-56
2022/02/02 02:15:55;;;;;;;;;;;;;;;18.35;35.50;99987.72;5001888;28;1058;-56
2022/02/02 02:18:21;;;;;;;;;;;;;;;18.30;35.52;99980.38;4998878;28;884;-56
2022/02/02 02:20:47;;;;;;;;;;;;;;;18.40;35.23;99980.19;4998681;28;1001;-56
2022/02/02 02:23:13;;;;;;;;;;;;;;;18.30;35.44;99980.38;4998956;28;790;-56
2022/02/02 02:25:39;;;;;;;;;;;;;;;18.38;35.23;99982.41;5001706;28;1915;-55
2022/02/02 02:28:38;;;;;;;;;;;;;;;18.38;35.30;99982.41;4996832;28;854;-56
2022/02/02 02:30:58;;;;;;;;;;;;;;;18.19;35.77;99996.28;4999067;28;1404;-55
2022/02/02 02:33:49;;;;;;;;;;;;;;;18.26;35.67;99984.88;4998959;28;795;-55
2022/02/02 02:39:24;;;;;;;;;;;;;;;18.19;35.83;99981.69;5004641;28;850;-56
2022/02/02 02:55:50;;;;;;;;;;;;;;;18.52;35.19;99959.59;4998630;28;810;-55
2022/02/02 03:50:22;;;;;;;;;;;;;;;18.56;34.76;99913.81;5010354;28;842;-56
2022/02/02 04:06:05;;;;;;;;;;;;;;;17.88;36.43;99918.94;4956189;28;1922;-56
2022/02/02 04:08:34;;;;;;;;;;;;;;;17.90;36.29;99927.72;4957731;28;878;-55
2022/02/02 04:11:03;;;;;;;;;;;;;;;17.57;36.88;99914.00;4978787;28;958;-56
2022/02/02 04:14:18;;;;;;;;;;;;;;;17.38;37.12;99919.56;4996904;28;818;-56
2022/02/02 04:52:28;;;;;;;;;;;;;;;17.39;36.92;99946.72;5009763;28;786;-56
2022/02/02 04:54:39;;;;;;;;;;;;;;;17.53;36.80;99940.44;5010179;28;1453;-57
2022/02/02 05:45:12;;;;;;;;;;;;;;;18.35;35.16;99940.94;5003737;28;1906;-54
2022/02/02 05:52:58;;;;;;;;;;;;;;;18.39;35.24;99948.25;4998558;28;833;-54
2022/02/02 05:55:24;;;;;;;;;;;;;;;18.42;35.06;99946.84;4997459;28;1381;-55
2022/02/02 05:57:49;;;;;;;;;;;;;;;18.53;34.94;99940.00;4998643;28;1364;-54
2022/02/02 06:00:15;;;;;;;;;;;;;;;18.57;35.01;99940.22;4999878;28;1455;-53
2022/02/02 06:02:47;;;;;;;;;;;;;;;18.52;34.81;99949.38;5003419;28;1450;-55
2022/02/02 06:05:13;;;;;;;;;;;;;;;18.51;35.16;99957.94;5015238;28;1909;-53
2022/02/02 06:07:40;;;;;;;;;;;;;;;18.64;34.64;99946.13;5017942;28;1442;-53
2022/02/02 06:10:07;;;;;;;;;;;;;;;18.51;34.89;99946.94;5008310;28;801;-54
2022/02/02 06:12:32;;;;;;;;;;;;;;;18.59;35.12;99951.72;4999230;28;735;-53
2022/02/02 06:14:59;;;;;;;;;;;;;;;18.62;34.74;99945.59;5008278;28;1364;-55
2022/02/02 06:17:26;;;;;;;;;;;;;;;17.72;36.63;99945.91;5017585;28;838;-55
2022/02/02 06:19:51;;;;;;;;;;;;;;;17.75;36.76;99954.38;4997651;28;822;-54
2022/02/02 06:22:18;;;;;;;;;;;;;;;17.99;36.13;99947.91;4998366;28;803;-57
2022/02/02 06:24:47;;;;;;;;;;;;;;;18.29;35.34;99957.53;4998698;28;1981;-56
2022/02/02 06:27:16;;;;;;;;;;;;;;;18.43;35.39;99965.81;5004253;28;1396;-57
2022/02/02 06:29:42;;;;;;;;;;;;;;;18.45;35.11;99960.00;5008553;28;1269;-57
2022/02/02 06:32:11;;;;;;;;;;;;;;;18.54;35.16;99957.34;5004435;28;1581;-57
2022/02/02 06:34:37;;;;;;;;;;;;;;;18.87;34.39;99970.97;5006362;28;1344;-57
2022/02/02 06:37:02;;;;;;;;;;;;;;;18.24;35.71;99965.06;5014220;28;1277;-56
2022/02/02 06:39:28;;;;;;;;;;;;;;;17.73;36.55;99975.03;5013050;28;920;-56
2022/02/02 06:41:56;;;;;;;;;;;;;;;18.35;35.67;99977.53;4997312;28;1346;-56
2022/02/02 06:44:22;;;;;;;;;;;;;;;18.37;35.63;99968.97;5009828;28;1918;-56
2022/02/02 06:46:47;;;;;;;;;;;;;;;18.44;35.43;99980.41;5000312;28;1443;-57
2022/02/02 06:49:13;;;;;;;;;;;;;;;18.36;35.48;99976.41;5009909;28;1472;-55
2022/02/02 06:51:48;;;;;;;;;;;;;;;18.35;35.69;99972.00;5010541;28;865;-55
2022/02/02 06:54:20;;;;;;;;;;;;;;;18.52;35.11;99976.91;5009223;28;1381;-56
2022/02/02 06:56:56;;;;;;;;;;;;;;;18.39;35.51;99973.03;5005376;28;858;-55
2022/02/02 07:02:24;;;;;;;;;;;;;;;18.44;35.37;99992.22;4997182;28;827;-58
2022/02/02 07:05:05;;;;;;;;;;;;;;;18.43;35.54;99989.78;5012187;28;1975;-56
2022/02/02 07:07:59;;;;;;;;;;;;;;;18.40;35.54;100001.41;4998632;28;1552;-56
2022/02/02 07:10:44;;;;;;;;;;;;;;;18.46;35.14;100003.72;4997680;28;802;-55
2022/02/02 07:23:21;;;;;;;;;;;;;;;18.26;35.88;100004.13;4997518;28;870;-54
2022/02/02 07:26:08;;;;;;;;;;;;;;;18.33;35.47;100004.53;4997686;28;1910;-55
2022/02/02 07:28:45;;;;;;;;;;;;;;;18.18;35.91;99999.34;5006773;28;1305;-55
2022/02/02 07:34:13;;;;;;;;;;;;;;;18.41;35.50;100003.84;4998113;28;1177;-54
2022/02/02 07:36:41;;;;;;;;;;;;;;;18.31;35.58;99998.50;4996168;28;857;-55
2022/02/02 07:39:08;;;;;;;;;;;;;;;18.42;35.55;100002.69;5010592;28;1383;-56
2022/02/02 07:41:36;;;;;;;;;;;;;;;18.34;35.24;99992.44;5011384;28;1509;-55
2022/02/02 07:44:13;;;;;;;;;;;;;;;18.44;35.49;99986.72;5005200;28;1962;-54
2022/02/02 07:46:41;;;;;;;;;;;;;;;18.40;35.54;99996.69;5007590;28;1338;-53
2022/02/02 07:49:08;;;;;;;;;;;;;;;18.47;35.60;99996.31;5001972;28;1341;-54
2022/02/02 07:51:34;;;;;;;;;;;;;;;18.51;35.18;99985.47;5009213;28;1274;-53
2022/02/02 07:54:02;;;;;;;;;;;;;;;18.44;35.61;99986.72;5006143;28;1267;-55
2022/02/02 07:56:34;;;;;;;;;;;;;;;18.49;35.29;99979.47;5006143;28;1341;-58
2022/02/02 07:59:15;;;;;;;;;;;;;;;18.38;35.67;99982.41;5011763;28;1454;-56
2022/02/02 08:01:43;;;;;;;;;;;;;;;18.41;35.43;99976.31;5010674;28;1224;-55
2022/02/02 08:04:08;;;;;;;;;;;;;;;18.42;35.35;99977.94;5014007;28;1898;-56
2022/02/02 08:06:36;;;;;;;;;;;;;;;18.36;35.68;99981.91;5006005;28;1229;-56
2022/02/02 08:09:01;;;;;;;;;;;;;;;18.48;35.49;99975.88;5008850;28;1309;-56
2022/02/02 08:11:33;;;;;;;;;;;;;;;18.37;35.51;99989.06;5000797;28;1222;-56
2022/02/02 08:14:00;;;;;;;;;;;;;;;18.45;35.48;99985.59;4999172;28;889;-57
2022/02/02 08:16:26;;;;;;;;;;;;;;;18.45;35.77;99990.25;5010235;28;1517;-56
2022/02/02 08:18:54;;;;;;;;;;;;;;;18.69;35.02;99990.09;5002799;28;1205;-56
2022/02/02 08:21:19;;;;;;;;;;;;;;;18.41;35.77;99986.50;5005136;28;1338;-55
2022/02/02 08:23:45;;;;;;;;;;;;;;;18.45;35.84;99974.59;5000230;28;1507;-57
2022/02/02 08:26:14;;;;;;;;;;;;;;;18.41;35.68;99984.56;5005465;28;1909;-56
2022/02/02 08:28:40;;;;;;;;;;;;;;;18.44;35.68;99953.69;5000240;28;1246;-57
2022/02/02 08:31:06;;;;;;;;;;;;;;;18.71;35.24;99973.25;4999328;28;1123;-56
2022/02/02 08:33:36;;;;;;;;;;;;;;;18.48;35.99;99959.38;5009982;28;1130;-56
2022/02/02 08:36:04;;;;;;;;;;;;;;;17.65;37.98;99970.22;5005301;28;1280;-54
2022/02/02 08:38:45;;;;;;;;;;;;;;;18.24;36.91;99971.41;5013153;28;1340;-57
2022/02/02 08:41:15;;;;;;;;;;;;;;;18.31;36.76;99979.25;5009108;28;1288;-58
2022/02/02 08:43:54;;;;;;;;;;;;;;;18.17;36.98;99987.47;5006968;28;1359;-56
2022/02/02 08:46:35;;;;;;;;;;;;;;;18.38;36.64;99982.41;5010508;28;1426;-57
2022/02/02 08:49:03;;;;;;;;;;;;;;;18.54;36.45;99991.19;5004576;28;1290;-56
2022/02/02 08:51:33;;;;;;;;;;;;;;;18.44;36.70;99978.44;5015005;28;1536;-56
2022/02/02 08:59:10;;;;;;;;;;;;;;;18.21;37.25;99988.50;5013219;28;1482;-57
2022/02/02 09:01:37;;;;;;;;;;;;;;;18.26;37.25;99991.19;5004518;28;1498;-55
2022/02/02 09:06:46;;;;;;;;;;;;;;;18.49;36.79;99993.25;5006893;28;1418;-59
2022/02/02 09:09:18;;;;;;;;;;;;;;;18.33;36.89;99993.53;5013906;28;1630;-57
2022/02/02 09:20:21;;;;;;;;;;;;;;;18.35;36.77;100020.75;5010043;28;1272;-56
2022/02/02 09:25:55;;;;;;;;;;;;;;;18.29;37.03;100018.09;5006892;28;1906;-57
2022/02/02 09:33:53;;;;;;;;;;;;;;;18.17;37.40;100020.50;5002216;28;1355;-57
2022/02/02 09:36:22;;;;;;;;;;;;;;;17.45;39.05;100011.47;5005842;28;1445;-57
2022/02/02 09:38:49;;;;;;;;;;;;;;;17.97;38.10;100013.44;5013404;28;1303;-57
2022/02/02 09:43:55;;;;;;;;;;;;;;;18.06;37.63;99977.78;5017485;28;821;-57
2022/02/02 09:46:25;;;;;;;;;;;;;;;18.21;37.26;99985.75;5007801;28;1352;-57
2022/02/02 09:48:55;;;;;;;;;;;;;;;18.24;37.40;99976.09;5014488;28;1227;-58
2022/02/02 09:51:47;;;;;;;;;;;;;;;18.32;37.23;99978.13;5013477;28;1513;-57
2022/02/02 09:54:22;;;;;;;;;;;;;;;18.38;37.17;99968.66;5002964;28;1674;-56
2022/02/02 09:59:49;;;;;;;;;;;;;;;18.30;37.33;99961.94;5009108;28;1296;-58
2022/02/02 10:05:15;;;;;;;;;;;;;;;18.19;37.28;99956.91;5004248;28;1914;-58
2022/02/02 10:15:24;;;;;;;;;;;;;;;18.45;36.72;99966.31;5007203;28;1220;-58
2022/02/02 10:18:20;;;;;;;;;;;;;;;18.41;36.73;99961.72;5009106;28;1229;-54
2022/02/02 10:20:49;;;;;;;;;;;;;;;18.38;36.89;99960.38;5007880;28;1334;-57
2022/02/02 10:23:21;;;;;;;;;;;;;;;18.32;37.14;99960.81;5013053;28;1780;-58
2022/02/02 10:25:50;;;;;;;;;;;;;;;18.29;37.28;99957.53;4997900;28;1918;-58
2022/02/02 10:28:17;;;;;;;;;;;;;;;18.24;37.08;99949.41;5010848;28;1555;-58
2022/02/02 10:30:45;;;;;;;;;;;;;;;18.36;36.64;99943.38;5004449;28;1000;-58
2022/02/02 10:33:14;;;;;;;;;;;;;;;18.38;36.70;99960.38;5009819;28;1492;-58
2022/02/02 10:35:41;;;;;;;;;;;;;;;18.34;36.75;99937.38;5007082;28;1679;-57
2022/02/02 10:38:15;;;;;;;;;;;;;;;18.19;37.27;99945.91;5008229;28;1456;-56
2022/02/02 10:40:53;;;;;;;;;;;;;;;18.26;37.21;99949.09;5000950;28;1513;-56
2022/02/02 10:43:44;;;;;;;;;;;;;;;18.33;36.91;99948.66;5013914;28;1482;-57
2022/02/02 10:46:16;;;;;;;;;;;;;;;18.32;37.02;99953.38;5009110;28;1917;-57
2022/02/02 10:48:50;;;;;;;;;;;;;;;18.34;37.00;99931.88;5020297;28;1312;-58
2022/02/02 10:51:30;;;;;;;;;;;;;;;18.34;36.68;99947.56;5011284;28;1232;-57
2022/02/02 11:07:19;;;;;;;;;;;;;;;18.33;36.74;99934.91;5010387;28;857;-56
2022/02/02 11:09:45;;;;;;;;;;;;;;;18.24;37.29;99943.06;4997223;28;1613;-58
2022/02/02 11:12:11;;;;;;;;;;;;;;;18.32;36.79;99947.88;5007340;28;1347;-56
2022/02/02 11:14:51;;;;;;;;;;;;;;;18.38;36.76;99938.38;5006501;28;1194;-57
2022/02/02 11:17:36;;;;;;;;;;;;;;;18.32;37.14;99936.84;5011735;28;1498;-56
2022/02/02 11:20:02;;;;;;;;;;;;;;;18.20;37.35;99936.53;5011172;28;1249;-57
2022/02/02 11:22:31;;;;;;;;;;;;;;;18.22;37.17;99934.31;5000612;28;1353;-57
2022/02/02 11:24:58;;;;;;;;;;;;;;;18.05;37.37;99937.66;5010077;28;1961;-56
2022/02/02 11:27:33;;;;;;;;;;;;;;;18.26;37.11;99925.13;5014555;28;1423;-56
2022/02/02 11:29:59;;;;;;;;;;;;;;;18.18;37.12;99922.28;5005435;28;1297;-57
2022/02/02 11:32:25;;;;;;;;;;;;;;;18.17;36.82;99906.88;5013244;28;1417;-57
2022/02/02 11:35:09;;;;;;;;;;;;;;;18.18;37.14;99908.53;5001105;28;1220;-58
2022/02/02 11:37:54;;;;;;;;;;;;;;;18.09;36.98;99914.72;5012076;28;1449;-56
2022/02/02 11:40:20;;;;;;;;;;;;;;;18.19;37.01;99897.22;5006130;28;1485;-56
2022/02/02 11:42:55;;;;;;;;;;;;;;;18.28;36.82;99905.56;5017966;28;1588;-56
2022/02/02 11:45:50;;;;;;;;;;;;;;;18.10;37.09;99904.53;5008696;28;1966;-56
2022/02/02 11:48:34;;;;;;;;;;;;;;;18.16;37.21;99902.50;5007414;28;1451;-56
2022/02/02 11:51:01;;;;;;;;;;;;;;;18.16;37.14;99899.75;5010297;28;1530;-58
2022/02/02 11:53:46;;;;;;;;;;;;;;;18.17;36.93;99893.13;5005270;28;1236;-58
2022/02/02 11:56:11;;;;;;;;;;;;;;;18.16;37.07;99908.84;5000247;28;1355;-58
2022/02/02 11:58:37;;;;;;;;;;;;;;;18.06;37.41;99896.09;5007733;28;1551;-56
2022/02/02 12:03:47;;;;;;;;;;;;;;;17.95;37.65;99911.97;5000736;28;1464;-58
2022/02/02 12:44:36;;;;;;;;;;;;;;;17.99;37.56;99909.41;5015588;28;1185;-56
2022/02/02 12:49:10;;;;;;;;;;;;;;;17.99;37.44;99923.16;5011707;28;1190;-57
2022/02/02 12:57:05;;;;;;;;;;;;;;;17.85;37.59;99925.06;5012741;28;1208;-55
2022/02/02 13:02:07;;;;;;;;;;;;;;;17.64;38.12;99930.91;5011882;28;1353;-55
2022/02/02 13:04:33;;;;;;;;;;;;;;;17.68;37.72;99929.19;5015073;28;1902;-53
2022/02/02 13:07:08;;;;;;;;;;;;;;;17.72;37.99;99932.16;5006449;28;1181;-55
2022/02/02 13:09:34;;;;;;;;;;;;;;;17.64;38.04;99935.59;5011081;28;1453;-55
2022/02/02 13:12:16;;;;;;;;;;;;;;;17.76;37.45;99935.94;5006293;28;1417;-54
2022/02/02 13:14:57;;;;;;;;;;;;;;;17.94;37.43;99942.53;5008061;28;1659;-55
2022/02/02 13:17:23;;;;;;;;;;;;;;;18.05;36.86;99946.72;5002619;28;1555;-55
2022/02/02 13:19:56;;;;;;;;;;;;;;;18.11;36.96;99948.25;5011224;28;1362;-54
2022/02/02 13:22:22;;;;;;;;;;;;;;;18.21;36.44;99932.69;5011412;28;1596;-57
2022/02/02 13:24:48;;;;;;;;;;;;;;;18.34;36.29;99929.13;4994957;28;1910;-55
2022/02/02 13:27:18;;;;;;;;;;;;;;;18.33;36.14;99929.41;4975549;28;1314;-57
2022/02/02 13:29:48;;;;;;;;;;;;;;;18.65;35.90;99934.00;4997459;28;1531;-56
2022/02/02 14:33:12;;;;;;;;;;;;;;;17.44;38.02;99907.34;5009785;28;1209;-54
2022/02/02 14:35:37;;;;;;;;;;;;;;;17.48;37.86;99916.63;5002923;28;1263;-54
2022/02/02 14:38:04;;;;;;;;;;;;;;;17.47;38.11;99916.94;4979773;28;826;-55
2022/02/02 14:41:11;;;;;;;;;;;;;;;17.79;37.15;99913.34;5003435;28;1397;-54
2022/02/02 14:43:31;;;;;;;;;;;;;;;17.88;37.23;99906.03;4994354;28;1424;-54
2022/02/02 14:45:59;;;;;;;;;;;;;;;17.99;36.78;99927.88;5000734;28;1970;-54
2022/02/02 14:48:36;;;;;;;;;;;;;;;18.03;36.78;99929.69;5011007;28;1534;-54
2022/02/02 14:51:11;;;;;;;;;;;;;;;18.11;36.54;99931.75;5002764;28;1257;-54
2022/02/02 14:53:58;;;;;;;;;;;;;;;18.19;36.46;99924.72;5003955;28;1475;-55
2022/02/02 15:28:46;;;;;;;;;;;;;;;18.30;36.15;99925.34;4996958;28;1527;-54
2022/02/02 15:31:12;;;;;;;;;;;;;;;18.33;36.25;99946.75;5015166;28;1302;-54
2022/02/02 15:33:37;;;;;;;;;;;;;;;18.34;36.21;99953.91;4999376;28;808;-53
2022/02/02 15:38:40;;;;;;;;;;;;;;;18.26;36.22;99936.13;5015801;28;834;-54
2022/02/02 15:41:13;;;;;;;;;;;;;;;18.39;36.17;99942.75;5015884;28;845;-53
2022/02/02 16:05:12;;;;;;;;;;;;;;;18.39;36.03;99952.97;5008991;28;1975;-53
2022/02/02 16:07:37;;;;;;;;;;;;;;;18.46;35.81;99945.91;5001592;28;1502;-54
2022/02/02 16:10:06;;;;;;;;;;;;;;;18.58;35.80;99958.34;5005483;28;1330;-54
2022/02/02 16:12:40;;;;;;;;;;;;;;;18.40;35.84;99955.41;5002270;28;1429;-54
2022/02/02 16:17:59;;;;;;;;;;;;;;;18.42;36.00;99961.41;5003798;28;857;-54
2022/02/02 16:36:02;;;;;;;;;;;;;;;18.60;35.82;99969.88;5007387;28;1210;-54
2022/02/02 16:38:32;;;;;;;;;;;;;;;18.58;35.71;99967.44;5001282;28;1186;-53
2022/02/02 16:40:58;;;;;;;;;;;;;;;18.68;35.21;99966.41;4996684;28;775;-52
2022/02/02 16:43:23;;;;;;;;;;;;;;;18.57;35.73;99970.50;4995438;28;774;-54
2022/02/02 16:45:55;;;;;;;;;;;;;;;18.69;35.23;99969.97;5002481;28;1906;-54
2022/02/02 16:48:21;;;;;;;;;;;;;;;18.65;35.46;99967.03;4996280;28;1419;-54
2022/02/02 16:50:49;;;;;;;;;;;;;;;17.37;38.00;99970.94;5005151;28;1547;-52
2022/02/02 17:30:55;;;;;;;;;;;;;;;18.66;35.61;99989.88;5003241;28;1173;-54
2022/02/02 17:33:29;;;;;;;;;;;;;;;18.43;35.94;99978.75;4999658;28;925;-54
2022/02/02 17:38:43;;;;;;;;;;;;;;;18.56;36.01;99982.63;4999276;28;774;-54
2022/02/02 18:00:21;;;;;;;;;;;;;;;18.29;36.54;100006.28;5002061;28;818;-55
2022/02/02 18:20:56;;;;;;;;;;;;;;;18.33;36.13;100021.06;4999541;28;873;-55
2022/02/02 18:23:42;;;;;;;;;;;;;;;18.34;36.10;100013.59;4997542;28;1065;-55
2022/02/02 18:26:18;;;;;;;;;;;;;;;18.31;36.26;100012.28;4998135;28;1955;-55
2022/02/02 18:28:53;;;;;;;;;;;;;;;18.47;35.87;100010.88;4992558;28;1090;-55
2022/02/02 18:34:14;;;;;;;;;;;;;;;18.49;35.91;100031.78;5008695;28;763;-55
2022/02/02 19:03:37;;;;;;;;;;;;;;;18.41;36.04;100020.34;4997771;28;819;-54
2022/02/02 19:06:05;;;;;;;;;;;;;;;18.36;36.23;100016.88;4994065;28;1910;-54
2022/02/02 20:06:01;;;;;;;;;;;;;;;18.50;35.90;100000.38;5010103;28;1967;-52
2022/02/02 20:11:04;;;;;;;;;;;;;;;18.40;35.98;99993.94;5015789;28;842;-53
2022/02/02 20:13:29;;;;;;;;;;;;;;;18.42;36.14;100004.66;5015886;28;783;-52
2022/02/02 20:15:55;;;;;;;;;;;;;;;18.49;35.75;100010.56;5003972;28;901;-54
2022/02/02 20:18:22;;;;;;;;;;;;;;;18.52;36.04;100014.66;4996554;28;923;-54
2022/02/02 20:20:47;;;;;;;;;;;;;;;18.39;36.13;100006.06;4996918;28;762;-52
2022/02/02 20:23:15;;;;;;;;;;;;;;;18.42;36.12;100002.69;4996699;28;806;-54
2022/02/02 20:25:46;;;;;;;;;;;;;;;18.51;35.63;100007.50;4996117;28;1891;-54
2022/02/02 20:28:12;;;;;;;;;;;;;;;18.51;35.92;100018.50;4998396;28;784;-54
2022/02/02 20:30:37;;;;;;;;;;;;;;;18.47;35.72;100016.38;4996621;28;854;-54
2022/02/02 20:33:03;;;;;;;;;;;;;;;18.47;35.70;100019.13;4996966;28;822;-54
2022/02/02 20:35:29;;;;;;;;;;;;;;;18.52;35.93;100020.16;4996901;28;838;-54
2022/02/02 20:37:54;;;;;;;;;;;;;;;18.45;36.18;100026.88;4996646;28;1079;-53
2022/02/02 20:40:21;;;;;;;;;;;;;;;18.40;36.21;100043.50;5001647;28;910;-50
2022/02/02 20:42:56;;;;;;;;;;;;;;;18.38;36.22;100048.47;4996422;28;804;-51
2022/02/02 21:14:39;;;;;;;;;;;;;;;18.04;36.57;100070.81;5014609;28;805;-55
2022/02/02 21:17:06;;;;;;;;;;;;;;;18.25;36.07;100055.59;4982961;28;1012;-55
2022/02/02 21:19:43;;;;;;;;;;;;;;;18.34;36.10;100057.66;5002086;28;874;-55
2022/02/02 21:22:09;;;;;;;;;;;;;;;18.42;35.94;100066.00;4999748;28;858;-56
2022/02/02 21:25:33;;;;;;;;;;;;;;;18.42;35.74;100056.94;4998942;28;1969;-55
2022/02/02 21:27:28;;;;;;;;;;;;;;;18.49;35.85;100064.81;4999015;28;1490;-56
2022/02/02 21:29:54;;;;;;;;;;;;;;;18.36;36.29;100067.25;5010030;28;870;-55
2022/02/02 21:32:20;;;;;;;;;;;;;;;18.36;36.25;100071.94;5003861;28;830;-56
2022/02/02 21:34:45;;;;;;;;;;;;;;;18.44;36.00;100065.72;4998265;28;1059;-56
2022/02/02 21:37:11;;;;;;;;;;;;;;;18.30;36.23;100062.97;4998219;28;794;-55
2022/02/02 21:39:40;;;;;;;;;;;;;;;18.48;36.05;100069.50;4998232;28;887;-56
2022/02/02 21:42:06;;;;;;;;;;;;;;;18.38;36.35;100067.75;4998161;28;1064;-56
2022/02/02 21:44:31;;;;;;;;;;;;;;;18.41;36.29;100071.81;5007259;28;1910;-55
2022/02/02 21:46:58;;;;;;;;;;;;;;;18.56;35.99;100070.72;4999203;28;764;-55
2022/02/02 21:49:25;;;;;;;;;;;;;;;18.53;36.14;100072.16;4999546;28;839;-56
2022/02/02 21:51:59;;;;;;;;;;;;;;;18.51;36.13;100076.31;4999190;28;789;-56
2022/02/02 21:54:25;;;;;;;;;;;;;;;18.51;36.16;100068.91;4982900;28;743;-55
2022/02/02 21:56:50;;;;;;;;;;;;;;;18.52;36.09;100075.22;5004714;28;905;-56
2022/02/02 21:59:16;;;;;;;;;;;;;;;18.45;36.01;100076.44;5001975;28;827;-55
2022/02/02 22:01:41;;;;;;;;;;;;;;;18.61;35.85;100078.91;4998765;28;936;-56
2022/02/02 22:04:07;;;;;;;;;;;;;;;18.65;35.86;100074.44;4998790;28;834;-56
2022/02/02 22:06:32;;;;;;;;;;;;;;;17.33;38.33;100079.81;4998924;28;1977;-56
2022/02/02 22:08:57;;;;;;;;;;;;;;;17.82;37.45;100074.16;5000403;28;770;-56
2022/02/02 22:11:23;;;;;;;;;;;;;;;18.00;37.36;100076.09;4999541;28;1022;-56
2022/02/02 22:13:58;;;;;;;;;;;;;;;18.10;36.98;100070.44;4999075;28;845;-55
2022/02/02 22:16:24;;;;;;;;;;;;;;;18.18;36.99;100052.41;4998321;28;858;-55
2022/02/02 22:18:50;;;;;;;;;;;;;;;18.06;36.88;100055.66;4998295;28;998;-56
2022/02/02 22:21:16;;;;;;;;;;;;;;;18.27;36.43;100053.38;4998770;28;822;-55
2022/02/02 22:23:42;;;;;;;;;;;;;;;18.17;36.86;100063.72;5003659;28;991;-55
2022/02/02 22:26:08;;;;;;;;;;;;;;;18.19;36.80;100047.72;4998536;28;1905;-55
2022/02/02 22:28:34;;;;;;;;;;;;;;;18.22;36.91;100061.69;4998562;28;834;-56
2022/02/02 22:30:59;;;;;;;;;;;;;;;18.01;37.34;100061.22;4999197;28;1020;-56
2022/02/02 22:33:24;;;;;;;;;;;;;;;18.24;36.88;100058.63;4998126;28;1482;-56
2022/02/02 22:35:50;;;;;;;;;;;;;;;18.31;36.68;100064.56;5000290;28;870;-56
2022/02/02 22:38:16;;;;;;;;;;;;;;;18.20;36.88;100063.13;4998341;28;835;-55
2022/02/02 22:40:42;;;;;;;;;;;;;;;18.11;36.84;100057.50;4998550;28;853;-56
2022/02/02 22:43:08;;;;;;;;;;;;;;;18.16;37.09;100070.34;4998246;28;846;-56
2022/02/02 22:45:34;;;;;;;;;;;;;;;18.19;36.86;100086.25;5003518;28;1969;-55
2022/02/02 22:47:59;;;;;;;;;;;;;;;18.14;36.93;100078.91;5003761;28;881;-55
2022/02/02 22:50:25;;;;;;;;;;;;;;;18.16;36.92;100089.59;4997987;28;809;-55
2022/02/02 22:52:54;;;;;;;;;;;;;;;18.23;36.88;100084.53;4998006;28;924;-55
2022/02/02 22:55:20;;;;;;;;;;;;;;;18.26;36.89;100090.25;4998418;28;782;-55
2022/02/02 22:57:47;;;;;;;;;;;;;;;18.22;37.07;100089.22;4998120;28;775;-56
2022/02/02 23:00:15;;;;;;;;;;;;;;;18.27;37.07;100091.06;5004086;28;782;-55
2022/02/02 23:02:50;;;;;;;;;;;;;;;18.25;37.02;100077.59;4997531;28;885;-56
2022/02/02 23:05:17;;;;;;;;;;;;;;;18.31;36.58;100075.56;4999297;28;1906;-55
2022/02/02 23:07:42;;;;;;;;;;;;;;;18.26;36.96;100072.94;4997463;28;862;-55
2022/02/02 23:10:08;;;;;;;;;;;;;;;18.42;36.24;100076.22;5005777;28;928;-55
2022/02/02 23:12:34;;;;;;;;;;;;;;;18.32;36.60;100073.66;5016378;28;1398;-55
2022/02/02 23:15:04;;;;;;;;;;;;;;;18.33;36.78;100073.34;5004951;28;901;-56
2022/02/02 23:17:31;;;;;;;;;;;;;;;18.23;37.00;100070.75;4997647;28;846;-56
2022/02/02 23:19:58;;;;;;;;;;;;;;;18.25;36.96;100071.28;4997577;28;1369;-55
2022/02/02 23:22:27;;;;;;;;;;;;;;;18.31;36.80;100075.56;4997234;28;879;-55
2022/02/02 23:24:55;;;;;;;;;;;;;;;18.14;37.21;100078.91;4996973;28;1906;-55
2022/02/02 23:27:20;;;;;;;;;;;;;;;18.14;37.23;100081.66;4983447;28;882;-55
2022/02/02 23:29:50;;;;;;;;;;;;;;;18.19;37.05;100084.31;4998251;28;940;-56
2022/02/02 23:32:18;;;;;;;;;;;;;;;18.32;36.65;100087.41;4997660;28;722;-56
2022/02/02 23:34:43;;;;;;;;;;;;;;;18.16;36.96;100079.44;4997664;28;829;-56
2022/02/02 23:37:09;;;;;;;;;;;;;;;18.29;36.75;100080.56;4997287;28;854;-56
2022/02/02 23:39:34;;;;;;;;;;;;;;;18.21;36.86;100075.75;5003311;28;834;-56
2022/02/02 23:44:54;;;;;;;;;;;;;;;18.27;36.88;100080.06;4989543;28;1977;-55
2022/02/02 23:47:21;;;;;;;;;;;;;;;18.23;36.85;100081.75;4997327;28;818;-55
2022/02/02 23:49:53;;;;;;;;;;;;;;;18.33;36.53;100089.88;4997054;28;854;-55
2022/02/02 23:52:47;;;;;;;;;;;;;;;18.33;36.65;100095.38;4999415;28;855;-55
2022/02/02 23:55:22;;;;;;;;;;;;;;;18.39;36.55;100080.38;5010167;28;838;-55
